sensor_id;sensor_type;location;lat;lon;timestamp;temperature;humidity
15343;DHT22;7771;48.478;8.936;2023-01-15T00:00:38;11.40;99.90
15343;DHT22;7771;48.478;8.936;2023-01-15T00:03:06;11.40;99.90
15343;DHT22;7771;48.478;8.936;2023-01-15T00:05:35;11.40;99.90
15343;DHT22;7771;48.478;8.936;2023-01-15T00:08:01;11.40;99.90
15343;DHT22;7771;48.478;8.936;2023-01-15T00:10:28;11.40;99.90
15343;DHT22;7771;48.478;8.936;2023-01-15T00:12:55;11.40;99.90
15343;DHT22;7771;48.478;8.936;2023-01-15T00:15:21;11.40;99.90
15343;DHT22;7771;48.478;8.936;2023-01-15T00:17:48;11.40;99.90
15343;DHT22;7771;48.478;8.936;2023-01-15T00:20:14;11.40;99.90
15343;DHT22;7771;48.478;8.936;2023-01-15T00:22:41;11.40;99.90
15343;DHT22;7771;48.478;8.936;2023-01-15T00:25:08;11.50;99.90
15343;DHT22;7771;48.478;8.936;2023-01-15T00:27:40;11.50;99.90
15343;DHT22;7771;48.478;8.936;2023-01-15T00:30:08;11.60;99.90
15343;DHT22;7771;48.478;8.936;2023-01-15T00:32:34;11.50;99.90
15343;DHT22;7771;48.478;8.936;2023-01-15T00:35:00;11.50;99.90
15343;DHT22;7771;48.478;8.936;2023-01-15T00:37:27;11.50;99.90
15343;DHT22;7771;48.478;8.936;2023-01-15T00:39:54;11.50;99.90
15343;DHT22;7771;48.478;8.936;2023-01-15T00:42:21;11.60;99.90
15343;DHT22;7771;48.478;8.936;2023-01-15T00:44:48;11.50;99.90
15343;DHT22;7771;48.478;8.936;2023-01-15T00:47:15;11.60;99.90
15343;DHT22;7771;48.478;8.936;2023-01-15T00:49:42;11.60;99.90
15343;DHT22;7771;48.478;8.936;2023-01-15T00:52:09;11.60;99.90
15343;DHT22;7771;48.478;8.936;2023-01-15T00:54:35;11.70;99.90
15343;DHT22;7771;48.478;8.936;2023-01-15T00:57:01;11.70;99.90
15343;DHT22;7771;48.478;8.936;2023-01-15T00:59:28;11.70;99.90
15343;DHT22;7771;48.478;8.936;2023-01-15T01:01:55;11.70;99.90
15343;DHT22;7771;48.478;8.936;2023-01-15T01:04:22;11.70;99.90
15343;DHT22;7771;48.478;8.936;2023-01-15T01:06:48;11.70;99.90
15343;DHT22;7771;48.478;8.936;2023-01-15T01:09:15;11.70;99.90
15343;DHT22;7771;48.478;8.936;2023-01-15T01:11:41;11.70;99.90
15343;DHT22;7771;48.478;8.936;2023-01-15T01:14:09;11.70;99.90
15343;DHT22;7771;48.478;8.936;2023-01-15T01:16:37;11.70;99.90
15343;DHT22;7771;48.478;8.936;2023-01-15T01:19:04;11.70;99.90
15343;DHT22;7771;48.478;8.936;2023-01-15T01:21:30;11.70;99.90
15343;DHT22;7771;48.478;8.936;2023-01-15T01:23:58;11.70;99.90
15343;DHT22;7771;48.478;8.936;2023-01-15T01:26:24;11.70;99.90
15343;DHT22;7771;48.478;8.936;2023-01-15T01:28:52;11.70;99.90
15343;DHT22;7771;48.478;8.936;2023-01-15T01:31:18;11.70;99.90
15343;DHT22;7771;48.478;8.936;2023-01-15T01:33:48;11.70;99.90
15343;DHT22;7771;48.478;8.936;2023-01-15T01:36:14;11.60;99.90
15343;DHT22;7771;48.478;8.936;2023-01-15T01:38:41;11.60;99.90
15343;DHT22;7771;48.478;8.936;2023-01-15T01:41:08;11.70;99.90
15343;DHT22;7771;48.478;8.936;2023-01-15T01:43:50;11.60;99.90
15343;DHT22;7771;48.478;8.936;2023-01-15T01:46:01;11.70;99.90
15343;DHT22;7771;48.478;8.936;2023-01-15T01:48:30;11.70;99.90
15343;DHT22;7771;48.478;8.936;2023-01-15T01:50:56;11.60;99.90
15343;DHT22;7771;48.478;8.936;2023-01-15T01:53:25;11.70;99.90
15343;DHT22;7771;48.478;8.936;2023-01-15T01:55:50;11.70;99.90
15343;DHT22;7771;48.478;8.936;2023-01-15T01:58:17;11.70;99.90
15343;DHT22;7771;48.478;8.936;2023-01-15T02:00:45;11.70;99.90
15343;DHT22;7771;48.478;8.936;2023-01-15T02:03:12;11.60;99.90
15343;DHT22;7771;48.478;8.936;2023-01-15T02:05:42;11.70;99.90
15343;DHT22;7771;48.478;8.936;2023-01-15T02:08:06;11.70;99.90
15343;DHT22;7771;48.478;8.936;2023-01-15T02:10:33;11.70;99.90
15343;DHT22;7771;48.478;8.936;2023-01-15T02:13:06;11.70;99.90
15343;DHT22;7771;48.478;8.936;2023-01-15T02:15:31;11.70;99.90
15343;DHT22;7771;48.478;8.936;2023-01-15T02:18:01;11.70;99.90
15343;DHT22;7771;48.478;8.936;2023-01-15T02:20:28;11.70;99.90
15343;DHT22;7771;48.478;8.936;2023-01-15T02:23:20;11.70;99.90
15343;DHT22;7771;48.478;8.936;2023-01-15T02:25:56;11.70;99.90
15343;DHT22;7771;48.478;8.936;2023-01-15T02:28:24;11.70;99.90
15343;DHT22;7771;48.478;8.936;2023-01-15T02:30:52;11.70;99.90
15343;DHT22;7771;48.478;8.936;2023-01-15T02:33:19;11.80;99.90
15343;DHT22;7771;48.478;8.936;2023-01-15T02:35:46;11.80;99.90
15343;DHT22;7771;48.478;8.936;2023-01-15T02:38:12;11.80;99.90
15343;DHT22;7771;48.478;8.936;2023-01-15T02:40:38;11.80;99.90
15343;DHT22;7771;48.478;8.936;2023-01-15T02:43:05;11.80;99.90
15343;DHT22;7771;48.478;8.936;2023-01-15T02:45:32;11.80;99.90
15343;DHT22;7771;48.478;8.936;2023-01-15T02:48:01;11.80;99.90
15343;DHT22;7771;48.478;8.936;2023-01-15T02:50:27;11.90;99.90
15343;DHT22;7771;48.478;8.936;2023-01-15T02:52:52;11.90;99.90
15343;DHT22;7771;48.478;8.936;2023-01-15T02:55:22;11.90;99.90
15343;DHT22;7771;48.478;8.936;2023-01-15T02:57:46;11.90;99.90
15343;DHT22;7771;48.478;8.936;2023-01-15T03:00:14;11.90;99.90
15343;DHT22;7771;48.478;8.936;2023-01-15T03:02:46;11.90;99.90
15343;DHT22;7771;48.478;8.936;2023-01-15T03:05:21;11.90;99.90
15343;DHT22;7771;48.478;8.936;2023-01-15T03:07:50;11.90;99.90
15343;DHT22;7771;48.478;8.936;2023-01-15T03:10:16;11.90;99.90
15343;DHT22;7771;48.478;8.936;2023-01-15T03:12:56;11.90;99.90
15343;DHT22;7771;48.478;8.936;2023-01-15T03:15:26;11.90;99.90
15343;DHT22;7771;48.478;8.936;2023-01-15T03:17:58;12.00;99.90
15343;DHT22;7771;48.478;8.936;2023-01-15T03:20:26;11.90;99.90
15343;DHT22;7771;48.478;8.936;2023-01-15T03:22:54;11.90;99.90
15343;DHT22;7771;48.478;8.936;2023-01-15T03:25:22;12.00;99.90
15343;DHT22;7771;48.478;8.936;2023-01-15T03:27:47;12.00;99.90
15343;DHT22;7771;48.478;8.936;2023-01-15T03:30:17;12.00;99.90
15343;DHT22;7771;48.478;8.936;2023-01-15T03:32:42;12.00;99.90
15343;DHT22;7771;48.478;8.936;2023-01-15T03:37:48;12.00;99.90
15343;DHT22;7771;48.478;8.936;2023-01-15T03:40:16;12.00;99.90
15343;DHT22;7771;48.478;8.936;2023-01-15T03:42:49;11.90;99.90
15343;DHT22;7771;48.478;8.936;2023-01-15T03:45:19;11.90;99.90
15343;DHT22;7771;48.478;8.936;2023-01-15T03:47:54;11.80;99.90
15343;DHT22;7771;48.478;8.936;2023-01-15T03:51:27;11.80;99.90
15343;DHT22;7771;48.478;8.936;2023-01-15T03:55:39;11.70;99.90
15343;DHT22;7771;48.478;8.936;2023-01-15T03:58:08;11.70;99.90
15343;DHT22;7771;48.478;8.936;2023-01-15T04:00:34;11.70;99.90
15343;DHT22;7771;48.478;8.936;2023-01-15T04:03:01;11.60;99.90
15343;DHT22;7771;48.478;8.936;2023-01-15T04:05:27;11.60;99.90
15343;DHT22;7771;48.478;8.936;2023-01-15T04:07:55;11.60;99.90
15343;DHT22;7771;48.478;8.936;2023-01-15T04:10:22;11.60;99.90
15343;DHT22;7771;48.478;8.936;2023-01-15T04:12:49;11.60;99.90
15343;DHT22;7771;48.478;8.936;2023-01-15T04:15:15;11.60;99.90
15343;DHT22;7771;48.478;8.936;2023-01-15T04:17:42;11.60;99.90
15343;DHT22;7771;48.478;8.936;2023-01-15T04:20:10;11.60;99.90
15343;DHT22;7771;48.478;8.936;2023-01-15T04:22:36;11.60;99.90
15343;DHT22;7771;48.478;8.936;2023-01-15T04:25:04;11.60;99.90
15343;DHT22;7771;48.478;8.936;2023-01-15T04:27:31;11.60;99.90
15343;DHT22;7771;48.478;8.936;2023-01-15T04:29:57;11.60;99.90
15343;DHT22;7771;48.478;8.936;2023-01-15T04:32:25;11.60;99.90
15343;DHT22;7771;48.478;8.936;2023-01-15T04:34:52;11.60;99.90
15343;DHT22;7771;48.478;8.936;2023-01-15T04:37:19;11.60;99.90
15343;DHT22;7771;48.478;8.936;2023-01-15T04:39:45;11.70;99.90
15343;DHT22;7771;48.478;8.936;2023-01-15T04:42:13;11.70;99.90
15343;DHT22;7771;48.478;8.936;2023-01-15T04:44:46;11.70;99.90
15343;DHT22;7771;48.478;8.936;2023-01-15T04:47:13;11.70;99.90
15343;DHT22;7771;48.478;8.936;2023-01-15T04:49:39;11.70;99.90
15343;DHT22;7771;48.478;8.936;2023-01-15T04:52:06;11.80;99.90
15343;DHT22;7771;48.478;8.936;2023-01-15T04:54:32;11.70;99.90
15343;DHT22;7771;48.478;8.936;2023-01-15T04:56:59;11.80;99.90
15343;DHT22;7771;48.478;8.936;2023-01-15T04:59:26;11.80;99.90
15343;DHT22;7771;48.478;8.936;2023-01-15T05:01:53;11.90;99.90
15343;DHT22;7771;48.478;8.936;2023-01-15T05:04:20;11.90;99.90
15343;DHT22;7771;48.478;8.936;2023-01-15T05:06:46;11.90;99.90
15343;DHT22;7771;48.478;8.936;2023-01-15T05:09:13;12.00;99.90
15343;DHT22;7771;48.478;8.936;2023-01-15T05:11:40;12.00;99.90
15343;DHT22;7771;48.478;8.936;2023-01-15T05:14:06;12.00;99.90
15343;DHT22;7771;48.478;8.936;2023-01-15T05:16:33;12.10;99.90
15343;DHT22;7771;48.478;8.936;2023-01-15T05:19:00;12.10;99.90
15343;DHT22;7771;48.478;8.936;2023-01-15T05:21:27;12.20;99.90
15343;DHT22;7771;48.478;8.936;2023-01-15T05:23:53;12.30;99.90
15343;DHT22;7771;48.478;8.936;2023-01-15T05:26:19;12.30;99.90
15343;DHT22;7771;48.478;8.936;2023-01-15T05:28:47;12.40;99.90
15343;DHT22;7771;48.478;8.936;2023-01-15T05:31:15;12.40;99.90
15343;DHT22;7771;48.478;8.936;2023-01-15T05:33:40;12.50;99.90
15343;DHT22;7771;48.478;8.936;2023-01-15T05:36:11;12.40;99.90
15343;DHT22;7771;48.478;8.936;2023-01-15T05:38:36;12.50;99.90
15343;DHT22;7771;48.478;8.936;2023-01-15T05:41:04;12.50;99.90
15343;DHT22;7771;48.478;8.936;2023-01-15T05:43:30;12.50;99.90
15343;DHT22;7771;48.478;8.936;2023-01-15T05:46:00;12.50;99.90
15343;DHT22;7771;48.478;8.936;2023-01-15T05:48:24;12.50;99.90
15343;DHT22;7771;48.478;8.936;2023-01-15T05:50:50;12.50;99.90
15343;DHT22;7771;48.478;8.936;2023-01-15T05:53:17;12.40;99.90
15343;DHT22;7771;48.478;8.936;2023-01-15T05:55:45;12.40;99.90
15343;DHT22;7771;48.478;8.936;2023-01-15T05:58:12;12.40;99.90
15343;DHT22;7771;48.478;8.936;2023-01-15T06:00:40;12.40;99.90
15343;DHT22;7771;48.478;8.936;2023-01-15T06:03:07;12.40;99.90
15343;DHT22;7771;48.478;8.936;2023-01-15T06:05:34;12.30;99.90
15343;DHT22;7771;48.478;8.936;2023-01-15T06:08:02;12.30;99.90
15343;DHT22;7771;48.478;8.936;2023-01-15T06:10:29;12.30;99.90
15343;DHT22;7771;48.478;8.936;2023-01-15T06:12:56;12.30;99.90
15343;DHT22;7771;48.478;8.936;2023-01-15T06:15:24;12.40;99.90
15343;DHT22;7771;48.478;8.936;2023-01-15T06:17:51;12.50;99.90
15343;DHT22;7771;48.478;8.936;2023-01-15T06:20:18;12.50;99.90
15343;DHT22;7771;48.478;8.936;2023-01-15T06:22:47;12.30;99.90
15343;DHT22;7771;48.478;8.936;2023-01-15T06:25:12;12.30;99.90
15343;DHT22;7771;48.478;8.936;2023-01-15T06:27:38;12.00;99.90
15343;DHT22;7771;48.478;8.936;2023-01-15T06:30:05;12.00;99.90
15343;DHT22;7771;48.478;8.936;2023-01-15T06:32:33;11.80;99.90
15343;DHT22;7771;48.478;8.936;2023-01-15T06:35:00;11.60;99.90
15343;DHT22;7771;48.478;8.936;2023-01-15T06:37:28;11.50;99.90
15343;DHT22;7771;48.478;8.936;2023-01-15T06:39:55;11.30;99.90
15343;DHT22;7771;48.478;8.936;2023-01-15T06:42:22;11.20;99.90
15343;DHT22;7771;48.478;8.936;2023-01-15T06:44:55;11.00;99.90
15343;DHT22;7771;48.478;8.936;2023-01-15T06:47:27;10.90;99.90
15343;DHT22;7771;48.478;8.936;2023-01-15T06:49:55;10.80;99.90
15343;DHT22;7771;48.478;8.936;2023-01-15T06:52:21;10.70;99.90
15343;DHT22;7771;48.478;8.936;2023-01-15T06:54:47;10.60;99.90
15343;DHT22;7771;48.478;8.936;2023-01-15T06:57:14;10.50;99.90
15343;DHT22;7771;48.478;8.936;2023-01-15T06:59:42;10.40;99.90
15343;DHT22;7771;48.478;8.936;2023-01-15T07:02:10;10.40;99.90
15343;DHT22;7771;48.478;8.936;2023-01-15T07:04:37;10.50;99.90
15343;DHT22;7771;48.478;8.936;2023-01-15T07:07:04;10.40;99.90
15343;DHT22;7771;48.478;8.936;2023-01-15T07:09:31;10.30;99.90
15343;DHT22;7771;48.478;8.936;2023-01-15T07:11:58;10.30;99.90
15343;DHT22;7771;48.478;8.936;2023-01-15T07:14:25;10.30;99.90
15343;DHT22;7771;48.478;8.936;2023-01-15T07:16:52;10.20;99.90
15343;DHT22;7771;48.478;8.936;2023-01-15T07:19:19;10.10;99.90
15343;DHT22;7771;48.478;8.936;2023-01-15T07:21:46;10.00;99.90
15343;DHT22;7771;48.478;8.936;2023-01-15T07:24:13;9.90;99.90
15343;DHT22;7771;48.478;8.936;2023-01-15T07:26:40;9.80;99.90
15343;DHT22;7771;48.478;8.936;2023-01-15T07:29:06;9.80;99.90
15343;DHT22;7771;48.478;8.936;2023-01-15T07:31:33;9.70;99.90
15343;DHT22;7771;48.478;8.936;2023-01-15T07:34:00;9.70;99.90
15343;DHT22;7771;48.478;8.936;2023-01-15T07:36:28;9.70;99.90
15343;DHT22;7771;48.478;8.936;2023-01-15T07:38:55;9.60;99.90
15343;DHT22;7771;48.478;8.936;2023-01-15T07:41:22;9.60;99.90
15343;DHT22;7771;48.478;8.936;2023-01-15T07:43:54;9.60;99.90
15343;DHT22;7771;48.478;8.936;2023-01-15T07:46:27;9.60;99.90
15343;DHT22;7771;48.478;8.936;2023-01-15T07:49:00;9.60;99.90
15343;DHT22;7771;48.478;8.936;2023-01-15T07:51:32;9.70;99.90
15343;DHT22;7771;48.478;8.936;2023-01-15T07:53:59;9.60;99.90
15343;DHT22;7771;48.478;8.936;2023-01-15T07:56:26;9.60;99.90
15343;DHT22;7771;48.478;8.936;2023-01-15T07:58:53;9.60;99.90
15343;DHT22;7771;48.478;8.936;2023-01-15T08:01:20;9.60;99.90
15343;DHT22;7771;48.478;8.936;2023-01-15T08:03:46;9.50;99.90
15343;DHT22;7771;48.478;8.936;2023-01-15T08:06:13;9.50;99.90
15343;DHT22;7771;48.478;8.936;2023-01-15T08:08:39;9.40;99.90
15343;DHT22;7771;48.478;8.936;2023-01-15T08:11:07;9.30;99.90
15343;DHT22;7771;48.478;8.936;2023-01-15T08:13:40;9.30;99.90
15343;DHT22;7771;48.478;8.936;2023-01-15T08:16:12;9.30;99.90
15343;DHT22;7771;48.478;8.936;2023-01-15T08:18:40;9.20;99.90
15343;DHT22;7771;48.478;8.936;2023-01-15T08:21:11;9.30;99.90
15343;DHT22;7771;48.478;8.936;2023-01-15T08:23:33;9.20;99.90
15343;DHT22;7771;48.478;8.936;2023-01-15T08:25:59;9.30;99.90
15343;DHT22;7771;48.478;8.936;2023-01-15T08:28:26;9.30;99.90
15343;DHT22;7771;48.478;8.936;2023-01-15T08:30:52;9.30;99.90
15343;DHT22;7771;48.478;8.936;2023-01-15T08:33:19;9.30;99.90
15343;DHT22;7771;48.478;8.936;2023-01-15T08:35:51;9.30;99.90
15343;DHT22;7771;48.478;8.936;2023-01-15T08:38:18;9.30;99.90
15343;DHT22;7771;48.478;8.936;2023-01-15T08:40:45;9.30;99.90
15343;DHT22;7771;48.478;8.936;2023-01-15T08:43:17;9.30;99.90
15343;DHT22;7771;48.478;8.936;2023-01-15T08:45:44;9.30;99.90
15343;DHT22;7771;48.478;8.936;2023-01-15T08:48:10;9.30;99.90
15343;DHT22;7771;48.478;8.936;2023-01-15T08:50:37;9.30;99.90
15343;DHT22;7771;48.478;8.936;2023-01-15T08:53:04;9.30;99.90
15343;DHT22;7771;48.478;8.936;2023-01-15T08:55:30;9.30;99.90
15343;DHT22;7771;48.478;8.936;2023-01-15T08:57:58;9.30;99.90
15343;DHT22;7771;48.478;8.936;2023-01-15T09:00:24;9.30;99.90
15343;DHT22;7771;48.478;8.936;2023-01-15T09:02:52;9.30;99.90
15343;DHT22;7771;48.478;8.936;2023-01-15T09:05:20;9.30;99.90
15343;DHT22;7771;48.478;8.936;2023-01-15T09:07:47;9.30;99.90
15343;DHT22;7771;48.478;8.936;2023-01-15T09:10:14;9.30;99.90
15343;DHT22;7771;48.478;8.936;2023-01-15T09:12:41;9.20;99.90
15343;DHT22;7771;48.478;8.936;2023-01-15T09:15:08;9.30;99.90
15343;DHT22;7771;48.478;8.936;2023-01-15T09:17:36;9.30;99.90
15343;DHT22;7771;48.478;8.936;2023-01-15T09:20:04;9.30;99.90
15343;DHT22;7771;48.478;8.936;2023-01-15T09:22:32;9.30;99.90
15343;DHT22;7771;48.478;8.936;2023-01-15T09:24:59;9.30;99.90
15343;DHT22;7771;48.478;8.936;2023-01-15T09:27:27;9.30;99.90
15343;DHT22;7771;48.478;8.936;2023-01-15T09:29:54;9.30;99.90
15343;DHT22;7771;48.478;8.936;2023-01-15T09:32:21;9.40;99.90
15343;DHT22;7771;48.478;8.936;2023-01-15T09:34:47;9.40;99.90
15343;DHT22;7771;48.478;8.936;2023-01-15T09:37:14;9.30;99.90
15343;DHT22;7771;48.478;8.936;2023-01-15T09:39:42;9.30;99.90
15343;DHT22;7771;48.478;8.936;2023-01-15T09:42:19;9.30;99.90
15343;DHT22;7771;48.478;8.936;2023-01-15T09:45:06;9.30;99.90
15343;DHT22;7771;48.478;8.936;2023-01-15T09:47:38;9.30;99.90
15343;DHT22;7771;48.478;8.936;2023-01-15T09:50:23;9.20;99.90
15343;DHT22;7771;48.478;8.936;2023-01-15T09:53:09;9.20;99.90
15343;DHT22;7771;48.478;8.936;2023-01-15T09:55:32;9.20;99.90
15343;DHT22;7771;48.478;8.936;2023-01-15T09:57:59;9.10;99.90
15343;DHT22;7771;48.478;8.936;2023-01-15T10:00:26;9.10;99.90
15343;DHT22;7771;48.478;8.936;2023-01-15T10:02:56;9.00;99.90
15343;DHT22;7771;48.478;8.936;2023-01-15T10:05:27;8.90;99.90
15343;DHT22;7771;48.478;8.936;2023-01-15T10:08:26;8.90;99.90
15343;DHT22;7771;48.478;8.936;2023-01-15T10:10:37;8.90;99.90
15343;DHT22;7771;48.478;8.936;2023-01-15T10:13:06;8.80;99.90
15343;DHT22;7771;48.478;8.936;2023-01-15T10:15:41;8.80;99.90
15343;DHT22;7771;48.478;8.936;2023-01-15T10:18:11;8.90;99.90
15343;DHT22;7771;48.478;8.936;2023-01-15T10:20:57;8.90;99.90
15343;DHT22;7771;48.478;8.936;2023-01-15T10:23:35;8.90;99.90
15343;DHT22;7771;48.478;8.936;2023-01-15T10:26:09;8.80;99.90
15343;DHT22;7771;48.478;8.936;2023-01-15T10:28:35;8.90;99.90
15343;DHT22;7771;48.478;8.936;2023-01-15T10:31:04;8.80;99.90
15343;DHT22;7771;48.478;8.936;2023-01-15T10:36:20;8.70;99.90
15343;DHT22;7771;48.478;8.936;2023-01-15T10:38:51;8.70;99.90
15343;DHT22;7771;48.478;8.936;2023-01-15T10:41:21;8.60;99.90
15343;DHT22;7771;48.478;8.936;2023-01-15T10:43:49;8.70;99.90
15343;DHT22;7771;48.478;8.936;2023-01-15T10:46:16;8.60;99.90
15343;DHT22;7771;48.478;8.936;2023-01-15T10:48:49;8.60;99.90
15343;DHT22;7771;48.478;8.936;2023-01-15T10:51:24;8.60;99.90
15343;DHT22;7771;48.478;8.936;2023-01-15T10:53:52;8.50;99.90
15343;DHT22;7771;48.478;8.936;2023-01-15T10:56:25;8.40;99.90
15343;DHT22;7771;48.478;8.936;2023-01-15T10:58:52;8.50;99.90
15343;DHT22;7771;48.478;8.936;2023-01-15T11:01:18;8.40;99.90
15343;DHT22;7771;48.478;8.936;2023-01-15T11:03:44;8.40;99.90
15343;DHT22;7771;48.478;8.936;2023-01-15T11:06:13;8.40;99.90
15343;DHT22;7771;48.478;8.936;2023-01-15T11:08:39;8.40;99.90
15343;DHT22;7771;48.478;8.936;2023-01-15T11:11:29;8.40;99.90
15343;DHT22;7771;48.478;8.936;2023-01-15T11:14:01;8.30;99.90
15343;DHT22;7771;48.478;8.936;2023-01-15T11:16:43;8.30;99.90
15343;DHT22;7771;48.478;8.936;2023-01-15T11:19:23;8.30;99.90
15343;DHT22;7771;48.478;8.936;2023-01-15T11:21:53;8.30;99.90
15343;DHT22;7771;48.478;8.936;2023-01-15T11:24:19;8.20;99.90
15343;DHT22;7771;48.478;8.936;2023-01-15T11:26:49;8.30;99.90
15343;DHT22;7771;48.478;8.936;2023-01-15T11:29:21;8.40;99.90
15343;DHT22;7771;48.478;8.936;2023-01-15T11:31:46;8.30;99.90
15343;DHT22;7771;48.478;8.936;2023-01-15T11:34:17;8.20;99.90
15343;DHT22;7771;48.478;8.936;2023-01-15T11:36:42;8.10;99.90
15343;DHT22;7771;48.478;8.936;2023-01-15T11:41:49;8.10;99.90
15343;DHT22;7771;48.478;8.936;2023-01-15T11:44:22;8.10;99.90
15343;DHT22;7771;48.478;8.936;2023-01-15T11:46:54;8.20;99.90
15343;DHT22;7771;48.478;8.936;2023-01-15T11:49:26;8.20;99.90
15343;DHT22;7771;48.478;8.936;2023-01-15T11:51:59;8.10;99.90
15343;DHT22;7771;48.478;8.936;2023-01-15T11:54:26;8.00;99.90
15343;DHT22;7771;48.478;8.936;2023-01-15T11:56:52;7.80;99.90
15343;DHT22;7771;48.478;8.936;2023-01-15T11:59:19;7.60;99.90
15343;DHT22;7771;48.478;8.936;2023-01-15T12:01:49;7.40;99.90
15343;DHT22;7771;48.478;8.936;2023-01-15T12:04:22;7.30;99.90
15343;DHT22;7771;48.478;8.936;2023-01-15T12:06:47;7.20;99.90
15343;DHT22;7771;48.478;8.936;2023-01-15T12:09:27;7.20;99.90
15343;DHT22;7771;48.478;8.936;2023-01-15T12:11:59;7.20;99.90
15343;DHT22;7771;48.478;8.936;2023-01-15T12:14:50;7.20;99.90
15343;DHT22;7771;48.478;8.936;2023-01-15T12:17:24;7.20;99.90
15343;DHT22;7771;48.478;8.936;2023-01-15T12:19:53;7.20;99.90
15343;DHT22;7771;48.478;8.936;2023-01-15T12:22:21;7.10;99.90
15343;DHT22;7771;48.478;8.936;2023-01-15T12:27:37;7.10;99.90
15343;DHT22;7771;48.478;8.936;2023-01-15T12:30:03;7.10;99.90
15343;DHT22;7771;48.478;8.936;2023-01-15T12:32:30;7.10;99.90
15343;DHT22;7771;48.478;8.936;2023-01-15T12:35:03;7.10;99.90
15343;DHT22;7771;48.478;8.936;2023-01-15T12:37:35;7.20;99.90
15343;DHT22;7771;48.478;8.936;2023-01-15T12:40:19;7.20;99.90
15343;DHT22;7771;48.478;8.936;2023-01-15T12:42:44;7.20;99.90
15343;DHT22;7771;48.478;8.936;2023-01-15T12:45:21;7.20;99.90
15343;DHT22;7771;48.478;8.936;2023-01-15T12:50:51;7.30;99.90
15343;DHT22;7771;48.478;8.936;2023-01-15T12:53:24;7.30;99.90
15343;DHT22;7771;48.478;8.936;2023-01-15T12:55:54;7.20;99.90
15343;DHT22;7771;48.478;8.936;2023-01-15T12:58:30;7.30;99.90
15343;DHT22;7771;48.478;8.936;2023-01-15T13:00:57;7.30;99.90
15343;DHT22;7771;48.478;8.936;2023-01-15T13:03:28;7.30;99.90
15343;DHT22;7771;48.478;8.936;2023-01-15T13:05:58;7.40;99.90
15343;DHT22;7771;48.478;8.936;2023-01-15T13:08:34;7.30;99.90
15343;DHT22;7771;48.478;8.936;2023-01-15T13:10:58;7.30;99.90
15343;DHT22;7771;48.478;8.936;2023-01-15T13:13:37;7.20;99.90
15343;DHT22;7771;48.478;8.936;2023-01-15T13:16:04;7.30;99.90
15343;DHT22;7771;48.478;8.936;2023-01-15T13:21:17;7.20;99.90
15343;DHT22;7771;48.478;8.936;2023-01-15T13:23:53;7.30;99.90
15343;DHT22;7771;48.478;8.936;2023-01-15T13:29:24;7.30;99.90
15343;DHT22;7771;48.478;8.936;2023-01-15T13:31:53;7.30;99.90
15343;DHT22;7771;48.478;8.936;2023-01-15T13:34:25;7.40;99.90
15343;DHT22;7771;48.478;8.936;2023-01-15T13:36:49;7.30;99.90
15343;DHT22;7771;48.478;8.936;2023-01-15T13:39:17;7.40;99.90
15343;DHT22;7771;48.478;8.936;2023-01-15T13:41:45;7.40;99.90
15343;DHT22;7771;48.478;8.936;2023-01-15T13:44:19;7.40;99.90
15343;DHT22;7771;48.478;8.936;2023-01-15T13:46:46;7.40;99.90
15343;DHT22;7771;48.478;8.936;2023-01-15T13:49:15;7.40;99.90
15343;DHT22;7771;48.478;8.936;2023-01-15T13:51:39;7.40;99.90
15343;DHT22;7771;48.478;8.936;2023-01-15T13:54:11;7.30;99.90
15343;DHT22;7771;48.478;8.936;2023-01-15T13:56:34;7.40;99.90
15343;DHT22;7771;48.478;8.936;2023-01-15T13:59:02;7.40;99.90
15343;DHT22;7771;48.478;8.936;2023-01-15T14:01:33;7.40;99.90
15343;DHT22;7771;48.478;8.936;2023-01-15T14:04:11;7.60;99.90
15343;DHT22;7771;48.478;8.936;2023-01-15T14:06:39;7.40;99.90
15343;DHT22;7771;48.478;8.936;2023-01-15T14:09:05;7.30;99.90
15343;DHT22;7771;48.478;8.936;2023-01-15T14:16:57;7.40;99.90
15343;DHT22;7771;48.478;8.936;2023-01-15T14:19:32;7.40;99.90
15343;DHT22;7771;48.478;8.936;2023-01-15T14:22:06;7.30;99.90
15343;DHT22;7771;48.478;8.936;2023-01-15T14:24:38;7.40;99.90
15343;DHT22;7771;48.478;8.936;2023-01-15T14:27:04;7.30;99.90
15343;DHT22;7771;48.478;8.936;2023-01-15T14:29:41;9.10;99.90
15343;DHT22;7771;48.478;8.936;2023-01-15T14:32:03;7.40;99.90
15343;DHT22;7771;48.478;8.936;2023-01-15T14:34:30;7.30;99.90
15343;DHT22;7771;48.478;8.936;2023-01-15T14:37:22;7.30;99.90
15343;DHT22;7771;48.478;8.936;2023-01-15T14:39:51;7.30;99.90
15343;DHT22;7771;48.478;8.936;2023-01-15T14:42:36;7.20;99.90
15343;DHT22;7771;48.478;8.936;2023-01-15T14:45:18;7.20;99.90
15343;DHT22;7771;48.478;8.936;2023-01-15T14:47:49;7.20;99.90
15343;DHT22;7771;48.478;8.936;2023-01-15T14:50:36;7.20;99.90
15343;DHT22;7771;48.478;8.936;2023-01-15T14:53:24;7.20;99.90
15343;DHT22;7771;48.478;8.936;2023-01-15T14:55:55;7.20;99.90
15343;DHT22;7771;48.478;8.936;2023-01-15T14:58:30;7.30;99.90
15343;DHT22;7771;48.478;8.936;2023-01-15T15:00:56;7.20;99.90
15343;DHT22;7771;48.478;8.936;2023-01-15T15:03:28;7.20;99.90
15343;DHT22;7771;48.478;8.936;2023-01-15T15:05:48;7.10;99.90
15343;DHT22;7771;48.478;8.936;2023-01-15T15:08:15;7.10;99.90
15343;DHT22;7771;48.478;8.936;2023-01-15T15:10:43;7.10;99.90
15343;DHT22;7771;48.478;8.936;2023-01-15T15:13:15;7.10;99.90
15343;DHT22;7771;48.478;8.936;2023-01-15T15:16:18;7.10;99.90
15343;DHT22;7771;48.478;8.936;2023-01-15T15:18:51;7.10;99.90
15343;DHT22;7771;48.478;8.936;2023-01-15T15:21:21;7.00;99.90
15343;DHT22;7771;48.478;8.936;2023-01-15T15:23:56;7.00;99.90
15343;DHT22;7771;48.478;8.936;2023-01-15T15:26:24;7.00;99.90
15343;DHT22;7771;48.478;8.936;2023-01-15T15:29:04;7.00;99.90
15343;DHT22;7771;48.478;8.936;2023-01-15T15:31:31;6.90;99.90
15343;DHT22;7771;48.478;8.936;2023-01-15T15:33:57;6.90;99.90
15343;DHT22;7771;48.478;8.936;2023-01-15T15:36:26;6.80;99.90
15343;DHT22;7771;48.478;8.936;2023-01-15T15:38:51;6.80;99.90
15343;DHT22;7771;48.478;8.936;2023-01-15T15:41:18;6.80;99.90
15343;DHT22;7771;48.478;8.936;2023-01-15T15:43:51;6.80;99.90
15343;DHT22;7771;48.478;8.936;2023-01-15T15:46:27;6.80;99.90
15343;DHT22;7771;48.478;8.936;2023-01-15T15:48:58;6.70;99.90
15343;DHT22;7771;48.478;8.936;2023-01-15T15:51:32;6.70;99.90
15343;DHT22;7771;48.478;8.936;2023-01-15T15:56:38;6.70;99.90
15343;DHT22;7771;48.478;8.936;2023-01-15T15:59:03;6.80;99.90
15343;DHT22;7771;48.478;8.936;2023-01-15T16:01:35;6.80;99.90
15343;DHT22;7771;48.478;8.936;2023-01-15T16:03:57;6.70;99.90
15343;DHT22;7771;48.478;8.936;2023-01-15T16:06:25;6.60;99.90
15343;DHT22;7771;48.478;8.936;2023-01-15T16:08:54;6.70;99.90
15343;DHT22;7771;48.478;8.936;2023-01-15T16:11:19;6.60;99.90
15343;DHT22;7771;48.478;8.936;2023-01-15T16:13:47;6.60;99.90
15343;DHT22;7771;48.478;8.936;2023-01-15T16:16:12;6.60;99.90
15343;DHT22;7771;48.478;8.936;2023-01-15T16:18:41;6.60;99.90
15343;DHT22;7771;48.478;8.936;2023-01-15T16:21:07;6.70;99.90
15343;DHT22;7771;48.478;8.936;2023-01-15T16:26:09;6.70;99.90
15343;DHT22;7771;48.478;8.936;2023-01-15T16:28:36;6.70;99.90
15343;DHT22;7771;48.478;8.936;2023-01-15T16:31:02;6.70;99.90
15343;DHT22;7771;48.478;8.936;2023-01-15T16:33:29;6.70;99.90
15343;DHT22;7771;48.478;8.936;2023-01-15T16:35:57;6.80;99.90
15343;DHT22;7771;48.478;8.936;2023-01-15T16:38:23;6.70;99.90